createdAt,value
2018-02-08T00:01:53.199Z,66.20
2018-02-08T00:04:20.210Z,61.58
2018-02-08T00:06:46.489Z,60.38
2018-02-08T00:09:12.786Z,59.25
2018-02-08T00:11:39.099Z,64.18
2018-02-08T00:14:05.438Z,77.70
2018-02-08T00:16:31.709Z,73.05
2018-02-08T00:18:58.015Z,61.88
2018-02-08T00:21:24.306Z,67.65
2018-02-08T00:23:50.603Z,66.37
2018-02-08T00:26:16.894Z,63.10
2018-02-08T00:28:43.179Z,64.30
2018-02-08T00:31:09.503Z,65.72
2018-02-08T00:33:35.788Z,62.67
2018-02-08T00:36:02.058Z,72.80
2018-02-08T00:38:28.367Z,72.00
2018-02-08T00:40:55.398Z,63.10
2018-02-08T00:43:22.431Z,71.00
2018-02-08T00:45:48.705Z,77.70
2018-02-08T00:48:15.008Z,65.18
2018-02-08T00:50:41.283Z,71.87
2018-02-08T00:53:07.586Z,80.10
2018-02-08T00:55:34.643Z,80.30
2018-02-08T00:58:00.923Z,77.22
2018-02-08T01:00:27.194Z,74.72
2018-02-08T01:02:54.213Z,95.22
2018-02-08T01:05:20.527Z,88.30
2018-02-08T01:07:46.854Z,82.07
2018-02-08T01:10:13.182Z,70.03
2018-02-08T01:12:39.462Z,71.00
2018-02-08T01:15:06.487Z,75.47
2018-02-08T01:17:32.772Z,83.25
2018-02-08T01:19:59.066Z,76.20
2018-02-08T01:22:26.091Z,76.65
2018-02-08T01:24:52.374Z,73.82
2018-02-08T01:27:18.758Z,75.22
2018-02-08T01:29:45.080Z,77.55
2018-02-08T01:32:11.394Z,85.30
2018-02-08T01:34:37.682Z,83.15
2018-02-08T01:37:03.959Z,72.12
2018-02-08T01:39:32.054Z,82.18
2018-02-08T01:41:59.070Z,92.00
2018-02-08T01:44:25.386Z,77.57
2018-02-08T01:46:51.670Z,87.25
2018-02-08T01:49:31.734Z,78.28
2018-02-08T01:51:58.770Z,88.28
2018-02-08T01:54:25.852Z,82.45
2018-02-08T01:56:52.126Z,82.55
2018-02-08T01:59:18.419Z,73.05
2018-02-08T02:01:44.722Z,78.53
2018-02-08T02:04:11.010Z,78.05
2018-02-08T02:06:37.303Z,85.10
2018-02-08T02:09:03.624Z,74.40
2018-02-08T02:11:29.936Z,79.25
2018-02-08T02:13:57.059Z,86.15
2018-02-08T02:16:23.374Z,82.15
2018-02-08T02:18:49.662Z,82.97
2018-02-08T02:21:16.015Z,76.55
2018-02-08T02:23:42.306Z,83.20
2018-02-08T02:26:09.330Z,73.10
2018-02-08T02:28:35.638Z,72.50
2018-02-08T02:31:01.922Z,78.30
2018-02-08T02:33:28.215Z,81.90
2018-02-08T02:35:54.503Z,81.72
2018-02-08T02:38:20.839Z,94.78
2018-02-08T02:40:47.126Z,79.60
2018-02-08T02:43:14.165Z,88.82
2018-02-08T02:45:41.196Z,72.10
2018-02-08T02:48:07.509Z,66.78
2018-02-08T02:50:33.787Z,79.43
2018-02-08T02:53:00.822Z,88.87
2018-02-08T02:55:27.863Z,90.55
2018-02-08T02:57:54.162Z,92.85
2018-02-08T03:00:20.469Z,77.70
2018-02-08T03:02:46.758Z,82.68
2018-02-08T03:05:13.031Z,83.65
2018-02-08T03:07:39.330Z,75.00
2018-02-08T03:10:06.344Z,76.03
2018-02-08T03:12:32.678Z,80.12
2018-02-08T03:14:58.966Z,73.78
2018-02-08T03:17:25.297Z,73.07
2018-02-08T03:19:51.570Z,84.62
2018-02-08T03:22:17.845Z,78.25
2018-02-08T03:24:44.121Z,87.53
2018-02-08T03:27:10.418Z,79.85
2018-02-08T03:29:36.730Z,86.07
2018-02-08T03:32:03.063Z,86.30
2018-02-08T03:34:29.366Z,81.87
2018-02-08T03:36:56.398Z,82.25
2018-02-08T03:39:23.716Z,82.78
2018-02-08T03:41:51.018Z,76.35
2018-02-08T03:44:17.364Z,70.70
2018-02-08T03:46:44.423Z,85.50
2018-02-08T03:49:10.734Z,85.47
2018-02-08T03:51:37.005Z,75.65
2018-02-08T03:54:03.322Z,77.05
2018-02-08T03:56:29.602Z,84.62
2018-02-08T03:58:55.922Z,82.88
2018-02-08T04:01:22.217Z,71.85
2018-02-08T04:03:48.539Z,84.93
2018-02-08T04:06:14.822Z,76.57
2018-02-08T04:08:41.151Z,74.85
2018-02-08T04:11:07.443Z,82.90
2018-02-08T04:13:33.774Z,83.03
2018-02-08T04:16:00.052Z,77.57
2018-02-08T04:18:26.328Z,80.40
2018-02-08T04:20:52.619Z,76.18
2018-02-08T04:23:19.638Z,83.68
2018-02-08T04:25:45.930Z,76.93
2018-02-08T04:28:12.289Z,93.00
2018-02-08T04:30:38.574Z,77.35
2018-02-08T04:33:05.603Z,86.15
2018-02-08T04:35:32.622Z,89.25
2018-02-08T04:37:58.899Z,77.80
2018-02-08T04:40:38.238Z,87.53
2018-02-08T04:46:12.910Z,76.87
2018-02-08T04:48:39.217Z,80.38
2018-02-08T04:51:05.522Z,75.68
2018-02-08T04:53:31.826Z,83.12
2018-02-08T04:55:58.098Z,84.93
2018-02-08T04:58:25.701Z,80.87
2018-02-08T05:00:52.038Z,76.57
2018-02-08T05:03:18.318Z,89.00
2018-02-08T05:05:45.342Z,75.15
2018-02-08T05:08:13.105Z,75.43
2018-02-08T05:10:39.398Z,70.32
2018-02-08T05:13:05.666Z,79.05
2018-02-08T05:15:31.988Z,88.45
2018-02-08T05:17:58.272Z,79.05
2018-02-08T05:20:24.547Z,80.25
2018-02-08T05:22:50.818Z,88.43
2018-02-08T05:25:17.085Z,82.40
2018-02-08T05:27:43.382Z,74.75
2018-02-08T05:30:09.671Z,83.72
2018-02-08T05:32:35.955Z,82.22
2018-02-08T05:35:02.254Z,83.85
2018-02-08T05:37:29.284Z,78.07
2018-02-08T05:39:56.334Z,90.00
2018-02-08T05:42:22.620Z,94.05
2018-02-08T05:44:48.912Z,76.62
2018-02-08T05:47:16.039Z,97.18
2018-02-08T05:49:42.342Z,88.12
2018-02-08T05:52:08.631Z,89.25
2018-02-08T05:54:35.695Z,79.95
2018-02-08T05:57:01.979Z,82.00
2018-02-08T05:59:29.546Z,79.68
2018-02-08T06:01:55.854Z,82.22
2018-02-08T06:04:22.168Z,80.28
2018-02-08T06:06:48.463Z,80.03
2018-02-08T06:09:15.476Z,82.93
2018-02-08T06:11:41.774Z,74.78
2018-02-08T06:14:08.092Z,77.55
2018-02-08T06:16:34.387Z,87.03
2018-02-08T06:19:01.430Z,79.35
2018-02-08T06:21:27.729Z,80.28
2018-02-08T06:23:53.998Z,86.32
2018-02-08T06:26:22.026Z,92.80
2018-02-08T06:28:48.360Z,91.78
2018-02-08T06:31:14.690Z,90.32
2018-02-08T06:33:40.983Z,75.07
2018-02-08T06:36:07.275Z,77.87
2018-02-08T06:38:33.564Z,86.05
2018-02-08T06:40:59.867Z,85.97
2018-02-08T06:43:26.153Z,79.78
2018-02-08T06:45:53.218Z,81.10
2018-02-08T06:48:20.233Z,78.15
2018-02-08T06:50:46.510Z,90.62
2018-02-08T06:53:13.538Z,84.13
2018-02-08T06:55:40.862Z,78.35
2018-02-08T06:58:07.160Z,75.82
2018-02-08T07:00:33.458Z,79.80
2018-02-08T07:03:00.495Z,76.57
2018-02-08T07:05:26.777Z,74.03
2018-02-08T07:07:53.070Z,79.95
2018-02-08T07:10:20.090Z,72.90
2018-02-08T07:12:46.386Z,72.60
2018-02-08T07:15:12.670Z,70.10
2018-02-08T07:17:39.766Z,75.80
2018-02-08T07:20:11.133Z,77.07
2018-02-08T07:22:37.407Z,75.30
2018-02-08T07:25:04.442Z,76.57
2018-02-08T07:27:31.479Z,68.65
2018-02-08T07:29:57.782Z,61.33
2018-02-08T07:32:24.064Z,70.10
2018-02-08T07:34:51.106Z,79.50
2018-02-08T07:37:18.139Z,75.05
2018-02-08T07:39:44.447Z,75.60
2018-02-08T07:42:10.790Z,71.93
2018-02-08T07:44:37.082Z,80.60
2018-02-08T07:47:04.464Z,86.37
2018-02-08T07:49:30.726Z,81.93
2018-02-08T07:51:57.047Z,82.18
2018-02-08T07:54:23.331Z,81.75
2018-02-08T07:56:49.619Z,73.30
2018-02-08T07:59:16.781Z,81.18
2018-02-08T08:01:43.830Z,82.78
2018-02-08T08:04:10.122Z,79.30
2018-02-08T08:06:36.448Z,77.20
2018-02-08T08:09:02.794Z,78.18
2018-02-08T08:11:29.102Z,72.95
2018-02-08T08:13:55.408Z,73.75
2018-02-08T08:16:22.051Z,69.35
2018-02-08T08:18:48.330Z,69.43
2018-02-08T08:21:14.623Z,72.75
2018-02-08T08:23:40.903Z,78.03
2018-02-08T08:26:07.989Z,80.35
2018-02-08T08:28:34.267Z,78.07
2018-02-08T08:31:01.568Z,76.40
2018-02-08T08:33:27.850Z,69.90
2018-02-08T08:35:54.867Z,78.28
2018-02-08T08:38:21.287Z,66.68
2018-02-08T08:40:47.582Z,75.90
2018-02-08T08:43:14.600Z,70.87
2018-02-08T08:45:41.293Z,88.95
2018-02-08T08:48:07.594Z,82.28
2018-02-08T08:50:34.678Z,71.18
2018-02-08T08:53:01.682Z,74.37
2018-02-08T08:55:28.709Z,73.32
2018-02-08T08:57:54.997Z,72.07
2018-02-08T09:00:21.330Z,78.43
2018-02-08T09:02:47.634Z,75.45
2018-02-08T09:05:13.934Z,71.12
2018-02-08T09:07:40.998Z,72.55
2018-02-08T09:10:08.015Z,77.20
2018-02-08T09:12:34.286Z,75.00
2018-02-08T09:15:00.559Z,71.50
2018-02-08T09:17:26.832Z,70.53
2018-02-08T09:19:53.867Z,65.95
2018-02-08T09:22:20.902Z,77.18
2018-02-08T09:24:47.207Z,72.55
2018-02-08T09:27:13.530Z,81.53
2018-02-08T09:29:39.815Z,70.15
2018-02-08T09:32:06.848Z,68.82
2018-02-08T09:34:33.146Z,68.07
2018-02-08T09:36:59.492Z,68.93
2018-02-08T09:39:25.770Z,74.57
2018-02-08T09:41:52.870Z,67.47
2018-02-08T09:44:19.170Z,75.55
2018-02-08T09:46:45.465Z,71.97
2018-02-08T09:49:12.495Z,74.65
2018-02-08T09:51:38.854Z,62.72
2018-02-08T09:54:05.904Z,66.68
2018-02-08T09:56:32.933Z,63.75
2018-02-08T09:58:59.962Z,69.03
2018-02-08T10:01:26.250Z,72.18
2018-02-08T10:03:52.536Z,69.10
2018-02-08T10:06:19.570Z,69.70
2018-02-08T10:08:45.855Z,63.72
2018-02-08T10:11:12.163Z,65.75
2018-02-08T10:13:39.190Z,64.68
2018-02-08T10:16:05.470Z,67.53
2018-02-08T10:18:31.771Z,59.75
2018-02-08T10:20:58.657Z,58.60
2018-02-08T10:23:24.941Z,60.47
2018-02-08T10:25:51.955Z,63.58
2018-02-08T10:28:18.262Z,59.53
2018-02-08T10:30:44.578Z,59.20
2018-02-08T10:33:10.878Z,65.57
2018-02-08T10:35:37.952Z,59.15
2018-02-08T10:38:04.238Z,58.80
2018-02-08T10:40:30.545Z,57.10
2018-02-08T10:42:56.854Z,59.63
2018-02-08T10:45:23.126Z,60.80
2018-02-08T10:47:49.408Z,58.00
2018-02-08T10:50:15.695Z,54.25
2018-02-08T10:52:42.709Z,62.47
2018-02-08T10:55:10.014Z,63.35
2018-02-08T10:57:36.311Z,60.58
2018-02-08T11:00:02.618Z,59.78
2018-02-08T11:02:28.959Z,59.63
2018-02-08T11:04:55.227Z,60.08
2018-02-08T11:07:22.250Z,51.53
2018-02-08T11:09:48.522Z,50.45
2018-02-08T11:12:15.872Z,57.92
2018-02-08T11:14:42.165Z,54.70
2018-02-08T11:17:08.467Z,60.78
2018-02-08T11:19:34.755Z,65.68
2018-02-08T11:22:01.812Z,56.83
2018-02-08T11:24:28.118Z,52.00
2018-02-08T11:26:55.198Z,53.67
2018-02-08T11:29:21.486Z,57.72
2018-02-08T11:31:47.770Z,56.67
2018-02-08T11:34:14.098Z,55.47
2018-02-08T11:36:40.378Z,48.47
2018-02-08T11:39:06.681Z,50.53
2018-02-08T11:41:32.967Z,55.60
2018-02-08T11:43:59.237Z,50.95
2018-02-08T11:46:25.530Z,56.90
2018-02-08T11:48:51.802Z,57.33
2018-02-08T11:51:20.967Z,57.33
2018-02-08T11:53:48.019Z,59.60
2018-02-08T11:56:14.797Z,64.00
2018-02-08T11:58:41.815Z,53.13
2018-02-08T12:01:08.123Z,51.80
2018-02-08T12:03:34.448Z,51.78
2018-02-08T12:06:00.770Z,46.50
2018-02-08T12:08:27.834Z,50.17
2018-02-08T12:10:54.275Z,58.72
2018-02-08T12:13:20.559Z,51.72
2018-02-08T12:15:46.858Z,50.97
2018-02-08T12:18:13.868Z,55.38
2018-02-08T12:20:40.170Z,50.22
2018-02-08T12:23:07.186Z,54.42
2018-02-08T12:25:33.480Z,50.45
2018-02-08T12:28:00.717Z,48.63
2018-02-08T12:30:27.009Z,54.63
2018-02-08T12:32:54.551Z,50.42
2018-02-08T12:35:21.499Z,58.05
2018-02-08T12:37:47.827Z,52.13
2018-02-08T12:40:20.039Z,48.83
2018-02-08T12:42:47.339Z,54.40
2018-02-08T12:45:13.630Z,54.35
2018-02-08T12:47:39.911Z,49.90
2018-02-08T12:50:06.201Z,54.05
2018-02-08T12:52:32.478Z,52.67
2018-02-08T12:54:58.754Z,54.95
2018-02-08T12:57:25.027Z,53.78
2018-02-08T12:59:52.095Z,54.33
2018-02-08T13:02:18.834Z,50.28
2018-02-08T13:04:45.106Z,51.00
2018-02-08T13:09:44.586Z,51.15
2018-02-08T13:12:11.604Z,52.15
2018-02-08T13:14:37.936Z,53.08
2018-02-08T13:17:04.992Z,58.42
2018-02-08T13:19:31.270Z,51.97
2018-02-08T13:21:58.282Z,50.50
2018-02-08T13:24:24.589Z,53.92
2018-02-08T13:26:57.098Z,50.38
2018-02-08T13:29:23.393Z,50.05
2018-02-08T13:31:50.439Z,52.92
2018-02-08T13:34:17.498Z,52.75
2018-02-08T13:36:44.555Z,48.20
2018-02-08T13:39:10.865Z,48.75
2018-02-08T13:41:37.167Z,47.88
2018-02-08T13:44:04.212Z,46.90
2018-02-08T13:46:30.679Z,45.60
2018-02-08T13:48:56.998Z,46.35
2018-02-08T13:54:26.435Z,43.20
2018-02-08T13:57:07.662Z,45.60
2018-02-08T13:59:35.014Z,48.17
2018-02-08T14:02:02.271Z,45.45
2018-02-08T14:04:28.568Z,47.78
2018-02-08T14:06:54.862Z,48.65
2018-02-08T14:09:21.219Z,39.13
2018-02-08T14:11:48.238Z,47.83
2018-02-08T14:14:14.587Z,39.00
2018-02-08T14:16:41.692Z,48.10
2018-02-08T14:19:07.990Z,46.83
2018-02-08T14:21:34.279Z,55.03
2018-02-08T14:24:00.574Z,50.95
2018-02-08T14:26:26.901Z,46.63
2018-02-08T14:28:53.211Z,51.58
2018-02-08T14:31:20.226Z,50.42
2018-02-08T14:33:48.301Z,50.95
2018-02-08T14:36:14.660Z,44.58
2018-02-08T14:38:41.995Z,44.15
2018-02-08T14:41:08.299Z,49.63
2018-02-08T14:43:35.306Z,43.42
2018-02-08T14:46:01.607Z,47.10
2018-02-08T14:48:27.887Z,45.50
2018-02-08T14:50:54.183Z,51.47
2018-02-08T14:53:20.475Z,46.25
2018-02-08T14:55:47.526Z,51.17
2018-02-08T14:58:14.543Z,53.33
2018-02-08T15:00:40.867Z,55.15
2018-02-08T15:03:07.138Z,45.33
2018-02-08T15:05:33.438Z,46.92
2018-02-08T15:07:59.882Z,51.42
2018-02-08T15:10:26.938Z,51.85
2018-02-08T15:12:54.702Z,50.17
2018-02-08T15:15:22.789Z,57.38
2018-02-08T15:17:49.075Z,58.35
2018-02-08T15:20:15.375Z,54.25
2018-02-08T15:22:41.713Z,58.87
2018-02-08T15:25:08.004Z,63.17
2018-02-08T15:27:34.283Z,66.00
2018-02-08T15:30:00.619Z,59.72
2018-02-08T15:32:26.904Z,57.00
2018-02-08T15:34:53.194Z,65.90
2018-02-08T15:37:19.496Z,56.78
2018-02-08T15:39:45.815Z,59.20
2018-02-08T15:42:12.101Z,63.85
2018-02-08T15:44:39.139Z,58.30
2018-02-08T15:47:06.174Z,66.30
2018-02-08T15:49:32.518Z,63.60
2018-02-08T15:51:59.538Z,62.33
2018-02-08T15:54:26.306Z,63.95
2018-02-08T15:56:53.328Z,66.03
2018-02-08T15:59:19.602Z,66.78
2018-02-08T16:01:45.898Z,79.90
2018-02-08T16:04:12.161Z,74.50
2018-02-08T16:06:39.186Z,67.65
2018-02-08T16:09:05.460Z,80.00
2018-02-08T16:11:31.744Z,74.60
2018-02-08T16:13:58.796Z,74.57
2018-02-08T16:16:25.807Z,71.07
2018-02-08T16:18:52.159Z,71.55
2018-02-08T16:21:18.448Z,86.05
2018-02-08T16:23:44.726Z,89.90
2018-02-08T16:26:11.001Z,82.43
2018-02-08T16:28:37.284Z,73.70
2018-02-08T16:31:03.564Z,82.10
2018-02-08T16:33:29.847Z,82.32
2018-02-08T16:35:56.123Z,86.95
2018-02-08T16:38:22.410Z,83.93
2018-02-08T16:40:49.486Z,75.05
2018-02-08T16:43:15.773Z,90.53
2018-02-08T16:45:42.078Z,83.00
2018-02-08T16:48:08.347Z,84.43
2018-02-08T16:50:35.488Z,83.65
2018-02-08T16:53:01.799Z,78.87
2018-02-08T16:55:28.100Z,86.07
2018-02-08T16:57:54.390Z,83.60
2018-02-08T17:00:21.411Z,84.40
2018-02-08T17:02:47.703Z,78.03
2018-02-08T17:05:14.002Z,80.62
2018-02-08T17:07:41.018Z,79.85
2018-02-08T17:10:08.318Z,83.28
2018-02-08T17:12:34.587Z,79.65
2018-02-08T17:15:00.970Z,82.05
2018-02-08T17:17:27.997Z,82.68
2018-02-08T17:19:54.283Z,83.18
2018-02-08T17:22:20.565Z,91.43
2018-02-08T17:24:48.206Z,80.85
2018-02-08T17:27:14.483Z,78.32
2018-02-08T17:29:40.766Z,89.85
2018-02-08T17:32:07.064Z,81.10
2018-02-08T17:34:33.330Z,86.95
2018-02-08T17:36:59.615Z,91.60
2018-02-08T17:39:25.898Z,95.87
2018-02-08T17:41:52.174Z,101.35
2018-02-08T17:44:19.458Z,89.47
2018-02-08T17:46:45.759Z,93.07
2018-02-08T17:49:13.066Z,90.35
2018-02-08T17:51:39.378Z,84.95
2018-02-08T17:54:05.649Z,88.12
2018-02-08T17:56:31.935Z,79.00
2018-02-08T17:58:58.212Z,94.45
2018-02-08T18:01:24.514Z,94.68
2018-02-08T18:03:50.797Z,86.95
2018-02-08T18:06:17.122Z,99.35
2018-02-08T18:08:43.386Z,92.95
2018-02-08T18:11:09.677Z,94.00
2018-02-08T18:13:35.979Z,99.40
2018-02-08T18:16:03.023Z,89.62
2018-02-08T18:18:30.036Z,86.72
2018-02-08T18:20:56.331Z,84.32
2018-02-08T18:23:22.624Z,77.60
2018-02-08T18:25:48.910Z,74.78
2018-02-08T18:28:15.206Z,87.40
2018-02-08T18:30:42.233Z,83.25
2018-02-08T18:33:09.267Z,83.68
2018-02-08T18:35:35.562Z,97.07
2018-02-08T18:38:01.854Z,78.47
2018-02-08T18:40:28.899Z,76.95
2018-02-08T18:42:55.938Z,93.10
2018-02-08T18:45:22.950Z,75.37
2018-02-08T18:47:49.240Z,84.70
2018-02-08T18:50:15.552Z,78.60
2018-02-08T18:52:42.563Z,79.20
2018-02-08T18:55:08.835Z,82.30
2018-02-08T18:57:35.851Z,68.95
2018-02-08T19:00:02.187Z,79.07
2018-02-08T19:02:28.488Z,79.03
2018-02-08T19:04:54.772Z,85.20
2018-02-08T19:07:21.074Z,73.45
2018-02-08T19:09:47.337Z,72.65
2018-02-08T19:12:14.362Z,75.32
2018-02-08T19:14:40.662Z,78.82
2018-02-08T19:17:06.946Z,71.60
2018-02-08T19:19:33.234Z,85.62
2018-02-08T19:21:59.546Z,70.95
2018-02-08T19:24:25.846Z,82.82
2018-02-08T19:26:52.151Z,77.15
2018-02-08T19:29:19.182Z,67.00
2018-02-08T19:31:46.478Z,73.53
2018-02-08T19:34:12.806Z,70.82
2018-02-08T19:36:39.103Z,84.62
2018-02-08T19:39:05.387Z,89.78
2018-02-08T19:41:31.683Z,78.53
2018-02-08T19:43:57.962Z,81.15
2018-02-08T19:46:24.258Z,74.37
2018-02-08T19:48:50.590Z,71.72
2018-02-08T19:51:18.406Z,71.62
2018-02-08T19:53:44.703Z,77.65
2018-02-08T19:56:11.011Z,71.55
2018-02-08T19:58:37.291Z,74.55
2018-02-08T20:01:05.056Z,80.68
2018-02-08T20:03:31.332Z,77.22
2018-02-08T20:05:57.599Z,81.90
2018-02-08T20:08:23.883Z,80.62
2018-02-08T20:10:50.151Z,68.60
2018-02-08T20:13:16.490Z,76.43
2018-02-08T20:15:42.790Z,76.03
2018-02-08T20:18:10.112Z,71.60
2018-02-08T20:20:36.414Z,74.55
2018-02-08T20:23:02.753Z,76.62
2018-02-08T20:25:35.111Z,72.57
2018-02-08T20:28:01.455Z,72.20
2018-02-08T20:30:27.775Z,70.68
2018-02-08T20:32:54.146Z,67.32
2018-02-08T20:35:21.177Z,73.30
2018-02-08T20:37:47.534Z,68.82
2018-02-08T20:40:18.543Z,79.18
2018-02-08T20:42:50.971Z,74.60
2018-02-08T20:45:17.290Z,78.75
2018-02-08T20:47:43.587Z,70.28
2018-02-08T20:50:09.882Z,64.43
2018-02-08T20:52:36.191Z,78.72
2018-02-08T20:55:02.471Z,81.12
2018-02-08T20:57:28.771Z,79.68
2018-02-08T20:59:55.073Z,84.47
2018-02-08T21:02:21.361Z,70.95
2018-02-08T21:04:47.719Z,75.65
2018-02-08T21:07:14.734Z,74.72
2018-02-08T21:09:41.002Z,82.35
2018-02-08T21:12:07.290Z,88.15
2018-02-08T21:14:33.584Z,84.32
2018-02-08T21:16:59.898Z,81.32
2018-02-08T21:19:26.166Z,77.50
2018-02-08T21:21:52.463Z,81.10
2018-02-08T21:24:19.343Z,81.63
2018-02-08T21:26:45.645Z,71.22
2018-02-08T21:29:12.955Z,75.12
2018-02-08T21:31:39.224Z,74.32
2018-02-08T21:34:05.502Z,91.45
2018-02-08T21:36:31.770Z,83.68
2018-02-08T21:38:58.043Z,85.85
2018-02-08T21:41:24.331Z,77.25
2018-02-08T21:43:50.638Z,73.78
2018-02-08T21:46:17.667Z,87.50
2018-02-08T21:48:43.961Z,88.68
2018-02-08T21:51:10.240Z,83.62
2018-02-08T21:53:36.523Z,86.22
2018-02-08T21:56:03.346Z,92.03
2018-02-08T21:58:29.630Z,95.50
2018-02-08T22:00:56.697Z,93.95
2018-02-08T22:03:23.715Z,81.40
2018-02-08T22:05:50.007Z,95.25
2018-02-08T22:08:16.327Z,85.47
2018-02-08T22:10:42.614Z,87.30
2018-02-08T22:13:08.922Z,89.18
2018-02-08T22:15:35.218Z,91.47
2018-02-08T22:18:01.532Z,92.25
2018-02-08T22:20:28.550Z,94.53
2018-02-08T22:22:54.850Z,98.07
2018-02-08T22:25:21.121Z,103.45
2018-02-08T22:27:47.427Z,92.40
2018-02-08T22:30:13.702Z,85.10
2018-02-08T22:32:40.032Z,81.12
2018-02-08T22:35:06.419Z,95.45
2018-02-08T22:37:32.747Z,95.80
2018-02-08T22:39:59.050Z,90.18
2018-02-08T22:42:26.090Z,97.15
2018-02-08T22:44:52.402Z,97.95
2018-02-08T22:47:18.703Z,104.12
2018-02-08T22:49:44.974Z,83.12
2018-02-08T22:52:11.247Z,108.78
2018-02-08T22:54:37.521Z,96.60
2018-02-08T22:57:04.811Z,99.85
2018-02-08T22:59:31.861Z,92.15
2018-02-08T23:01:58.180Z,91.90
2018-02-08T23:04:25.209Z,112.57
2018-02-08T23:06:53.029Z,97.10
2018-02-08T23:09:19.330Z,91.32
2018-02-08T23:11:46.350Z,89.47
2018-02-08T23:14:13.682Z,86.57
2018-02-08T23:16:39.991Z,82.62
2018-02-08T23:19:06.262Z,99.70
2018-02-08T23:21:32.566Z,92.20
2018-02-08T23:23:58.875Z,94.55
2018-02-08T23:26:25.174Z,98.65
2018-02-08T23:28:52.249Z,92.18
2018-02-08T23:31:18.550Z,95.85
2018-02-08T23:33:45.606Z,88.05
2018-02-08T23:36:12.623Z,89.40
2018-02-08T23:38:38.919Z,98.78
2018-02-08T23:41:05.195Z,85.15
2018-02-08T23:43:31.529Z,85.82
2018-02-08T23:45:58.598Z,83.45
2018-02-08T23:48:25.614Z,91.25
2018-02-08T23:50:51.881Z,93.78
2018-02-08T23:53:18.186Z,89.43
2018-02-08T23:55:44.466Z,100.50
2018-02-08T23:58:10.746Z,84.68
